sensor_id;sensor_type;location;lat;lon;timestamp;P1;durP1;ratioP1;P2;durP2;ratioP2
75062;SDS011;63981;51.052;13.754;2023-04-16T00:01:41;11.35;;;10.10;;
75062;SDS011;63981;51.052;13.754;2023-04-16T00:04:06;11.98;;;10.27;;
75062;SDS011;63981;51.052;13.754;2023-04-16T00:06:32;9.75;;;8.00;;
75062;SDS011;63981;51.052;13.754;2023-04-16T00:08:58;10.95;;;8.75;;
75062;SDS011;63981;51.052;13.754;2023-04-16T00:11:24;11.85;;;8.20;;
75062;SDS011;63981;51.052;13.754;2023-04-16T00:13:50;11.98;;;9.60;;
75062;SDS011;63981;51.052;13.754;2023-04-16T00:16:15;10.65;;;9.48;;
75062;SDS011;63981;51.052;13.754;2023-04-16T00:18:41;10.60;;;9.23;;
75062;SDS011;63981;51.052;13.754;2023-04-16T00:21:07;12.40;;;9.70;;
75062;SDS011;63981;51.052;13.754;2023-04-16T00:23:33;12.02;;;8.52;;
75062;SDS011;63981;51.052;13.754;2023-04-16T00:25:59;9.48;;;8.23;;
75062;SDS011;63981;51.052;13.754;2023-04-16T00:28:25;11.48;;;9.20;;
75062;SDS011;63981;51.052;13.754;2023-04-16T00:30:52;11.55;;;9.40;;
75062;SDS011;63981;51.052;13.754;2023-04-16T00:33:18;10.10;;;8.23;;
75062;SDS011;63981;51.052;13.754;2023-04-16T00:35:45;10.70;;;8.90;;
75062;SDS011;63981;51.052;13.754;2023-04-16T00:38:11;13.35;;;10.00;;
75062;SDS011;63981;51.052;13.754;2023-04-16T00:40:38;12.93;;;10.02;;
75062;SDS011;63981;51.052;13.754;2023-04-16T00:43:04;10.70;;;8.80;;
75062;SDS011;63981;51.052;13.754;2023-04-16T00:45:30;11.77;;;9.77;;
75062;SDS011;63981;51.052;13.754;2023-04-16T00:47:55;10.23;;;7.18;;
75062;SDS011;63981;51.052;13.754;2023-04-16T00:50:23;11.70;;;9.25;;
75062;SDS011;63981;51.052;13.754;2023-04-16T00:52:49;11.32;;;9.15;;
75062;SDS011;63981;51.052;13.754;2023-04-16T00:55:15;11.02;;;8.55;;
75062;SDS011;63981;51.052;13.754;2023-04-16T00:57:46;9.82;;;8.07;;
75062;SDS011;63981;51.052;13.754;2023-04-16T01:00:11;8.82;;;7.05;;
75062;SDS011;63981;51.052;13.754;2023-04-16T01:02:38;9.77;;;7.97;;
75062;SDS011;63981;51.052;13.754;2023-04-16T01:05:04;10.40;;;8.90;;
75062;SDS011;63981;51.052;13.754;2023-04-16T01:07:30;10.27;;;7.78;;
75062;SDS011;63981;51.052;13.754;2023-04-16T01:09:56;8.98;;;6.68;;
75062;SDS011;63981;51.052;13.754;2023-04-16T01:12:22;10.57;;;9.05;;
75062;SDS011;63981;51.052;13.754;2023-04-16T01:14:47;13.50;;;9.57;;
75062;SDS011;63981;51.052;13.754;2023-04-16T01:17:13;11.63;;;9.40;;
75062;SDS011;63981;51.052;13.754;2023-04-16T01:19:39;14.05;;;10.20;;
75062;SDS011;63981;51.052;13.754;2023-04-16T01:22:05;10.82;;;8.93;;
75062;SDS011;63981;51.052;13.754;2023-04-16T01:24:31;11.75;;;9.65;;
75062;SDS011;63981;51.052;13.754;2023-04-16T01:26:57;12.25;;;9.32;;
75062;SDS011;63981;51.052;13.754;2023-04-16T01:29:24;10.10;;;8.32;;
75062;SDS011;63981;51.052;13.754;2023-04-16T01:31:50;11.00;;;8.73;;
75062;SDS011;63981;51.052;13.754;2023-04-16T01:34:23;9.70;;;7.75;;
75062;SDS011;63981;51.052;13.754;2023-04-16T01:36:49;12.35;;;9.15;;
75062;SDS011;63981;51.052;13.754;2023-04-16T01:39:15;8.45;;;7.57;;
75062;SDS011;63981;51.052;13.754;2023-04-16T01:41:41;12.05;;;8.48;;
75062;SDS011;63981;51.052;13.754;2023-04-16T01:44:07;11.75;;;9.75;;
75062;SDS011;63981;51.052;13.754;2023-04-16T01:46:34;10.10;;;7.63;;
75062;SDS011;63981;51.052;13.754;2023-04-16T01:49:00;11.75;;;9.18;;
75062;SDS011;63981;51.052;13.754;2023-04-16T01:51:27;12.63;;;9.48;;
75062;SDS011;63981;51.052;13.754;2023-04-16T01:53:54;12.57;;;8.93;;
75062;SDS011;63981;51.052;13.754;2023-04-16T01:56:20;10.35;;;8.10;;
75062;SDS011;63981;51.052;13.754;2023-04-16T01:58:46;11.02;;;8.25;;
75062;SDS011;63981;51.052;13.754;2023-04-16T02:01:13;10.65;;;7.80;;
75062;SDS011;63981;51.052;13.754;2023-04-16T02:03:39;11.75;;;8.02;;
75062;SDS011;63981;51.052;13.754;2023-04-16T02:06:05;12.23;;;8.50;;
75062;SDS011;63981;51.052;13.754;2023-04-16T02:08:30;11.35;;;8.68;;
75062;SDS011;63981;51.052;13.754;2023-04-16T02:10:56;11.27;;;9.80;;
75062;SDS011;63981;51.052;13.754;2023-04-16T02:13:25;10.80;;;8.32;;
75062;SDS011;63981;51.052;13.754;2023-04-16T02:15:51;11.98;;;8.30;;
75062;SDS011;63981;51.052;13.754;2023-04-16T02:18:47;10.43;;;8.40;;
75062;SDS011;63981;51.052;13.754;2023-04-16T02:21:14;10.25;;;8.32;;
75062;SDS011;63981;51.052;13.754;2023-04-16T02:23:40;11.13;;;8.27;;
75062;SDS011;63981;51.052;13.754;2023-04-16T02:26:06;12.68;;;7.95;;
75062;SDS011;63981;51.052;13.754;2023-04-16T02:28:32;8.40;;;7.13;;
75062;SDS011;63981;51.052;13.754;2023-04-16T02:30:58;7.53;;;5.40;;
75062;SDS011;63981;51.052;13.754;2023-04-16T02:33:25;8.10;;;6.05;;
75062;SDS011;63981;51.052;13.754;2023-04-16T02:35:57;8.30;;;7.10;;
75062;SDS011;63981;51.052;13.754;2023-04-16T02:38:23;8.15;;;6.47;;
75062;SDS011;63981;51.052;13.754;2023-04-16T02:40:49;8.13;;;6.35;;
75062;SDS011;63981;51.052;13.754;2023-04-16T02:43:15;12.25;;;8.13;;
75062;SDS011;63981;51.052;13.754;2023-04-16T02:45:41;9.68;;;7.30;;
75062;SDS011;63981;51.052;13.754;2023-04-16T02:48:07;9.45;;;7.63;;
75062;SDS011;63981;51.052;13.754;2023-04-16T02:50:34;7.78;;;5.93;;
75062;SDS011;63981;51.052;13.754;2023-04-16T02:52:59;8.93;;;7.05;;
75062;SDS011;63981;51.052;13.754;2023-04-16T02:55:25;7.88;;;6.57;;
75062;SDS011;63981;51.052;13.754;2023-04-16T02:57:51;8.55;;;7.03;;
75062;SDS011;63981;51.052;13.754;2023-04-16T03:00:18;7.95;;;6.15;;
75062;SDS011;63981;51.052;13.754;2023-04-16T03:02:44;9.05;;;6.55;;
75062;SDS011;63981;51.052;13.754;2023-04-16T03:05:10;7.90;;;6.88;;
75062;SDS011;63981;51.052;13.754;2023-04-16T03:07:36;11.15;;;7.22;;
75062;SDS011;63981;51.052;13.754;2023-04-16T03:10:04;8.07;;;7.28;;
75062;SDS011;63981;51.052;13.754;2023-04-16T03:12:30;8.13;;;6.43;;
75062;SDS011;63981;51.052;13.754;2023-04-16T03:14:56;8.52;;;6.78;;
75062;SDS011;63981;51.052;13.754;2023-04-16T03:17:22;8.35;;;6.65;;
75062;SDS011;63981;51.052;13.754;2023-04-16T03:19:48;8.93;;;7.43;;
75062;SDS011;63981;51.052;13.754;2023-04-16T03:22:15;7.55;;;5.45;;
75062;SDS011;63981;51.052;13.754;2023-04-16T03:24:41;8.75;;;6.40;;
75062;SDS011;63981;51.052;13.754;2023-04-16T03:27:07;8.32;;;7.25;;
75062;SDS011;63981;51.052;13.754;2023-04-16T03:29:35;8.73;;;6.68;;
75062;SDS011;63981;51.052;13.754;2023-04-16T03:34:27;7.40;;;5.85;;
75062;SDS011;63981;51.052;13.754;2023-04-16T03:36:53;6.97;;;5.53;;
75062;SDS011;63981;51.052;13.754;2023-04-16T03:39:19;10.60;;;7.10;;
75062;SDS011;63981;51.052;13.754;2023-04-16T03:41:45;8.80;;;7.03;;
75062;SDS011;63981;51.052;13.754;2023-04-16T03:44:11;7.80;;;6.65;;
75062;SDS011;63981;51.052;13.754;2023-04-16T03:46:36;9.55;;;7.30;;
75062;SDS011;63981;51.052;13.754;2023-04-16T03:49:02;10.13;;;7.68;;
75062;SDS011;63981;51.052;13.754;2023-04-16T03:51:29;11.80;;;7.70;;
75062;SDS011;63981;51.052;13.754;2023-04-16T03:53:55;10.80;;;7.13;;
75062;SDS011;63981;51.052;13.754;2023-04-16T03:56:21;10.68;;;7.75;;
75062;SDS011;63981;51.052;13.754;2023-04-16T03:58:49;10.15;;;6.25;;
75062;SDS011;63981;51.052;13.754;2023-04-16T04:01:14;8.95;;;6.78;;
75062;SDS011;63981;51.052;13.754;2023-04-16T04:03:41;8.02;;;6.70;;
75062;SDS011;63981;51.052;13.754;2023-04-16T04:06:07;8.43;;;6.65;;
75062;SDS011;63981;51.052;13.754;2023-04-16T04:08:33;9.85;;;8.05;;
75062;SDS011;63981;51.052;13.754;2023-04-16T04:11:01;11.80;;;6.70;;
75062;SDS011;63981;51.052;13.754;2023-04-16T04:13:28;8.65;;;7.05;;
75062;SDS011;63981;51.052;13.754;2023-04-16T04:15:54;7.90;;;6.47;;
75062;SDS011;63981;51.052;13.754;2023-04-16T04:18:21;9.30;;;6.90;;
75062;SDS011;63981;51.052;13.754;2023-04-16T04:20:47;9.77;;;7.68;;
75062;SDS011;63981;51.052;13.754;2023-04-16T04:23:16;10.20;;;6.90;;
75062;SDS011;63981;51.052;13.754;2023-04-16T04:25:44;8.02;;;6.28;;
75062;SDS011;63981;51.052;13.754;2023-04-16T04:28:10;7.72;;;5.80;;
75062;SDS011;63981;51.052;13.754;2023-04-16T04:30:35;8.07;;;6.25;;
75062;SDS011;63981;51.052;13.754;2023-04-16T04:33:01;8.13;;;6.57;;
75062;SDS011;63981;51.052;13.754;2023-04-16T04:35:27;8.65;;;6.70;;
75062;SDS011;63981;51.052;13.754;2023-04-16T04:37:53;9.05;;;6.63;;
75062;SDS011;63981;51.052;13.754;2023-04-16T04:40:20;9.57;;;5.85;;
75062;SDS011;63981;51.052;13.754;2023-04-16T04:42:46;9.68;;;6.03;;
75062;SDS011;63981;51.052;13.754;2023-04-16T04:45:11;10.25;;;6.82;;
75062;SDS011;63981;51.052;13.754;2023-04-16T04:47:38;8.25;;;5.97;;
75062;SDS011;63981;51.052;13.754;2023-04-16T04:50:04;10.07;;;7.03;;
75062;SDS011;63981;51.052;13.754;2023-04-16T04:52:31;10.57;;;7.15;;
75062;SDS011;63981;51.052;13.754;2023-04-16T04:54:57;10.30;;;7.05;;
75062;SDS011;63981;51.052;13.754;2023-04-16T04:57:23;11.30;;;8.32;;
75062;SDS011;63981;51.052;13.754;2023-04-16T04:59:52;11.93;;;8.20;;
75062;SDS011;63981;51.052;13.754;2023-04-16T05:02:18;14.18;;;8.48;;
75062;SDS011;63981;51.052;13.754;2023-04-16T05:04:43;11.35;;;8.20;;
75062;SDS011;63981;51.052;13.754;2023-04-16T05:07:09;10.65;;;8.60;;
75062;SDS011;63981;51.052;13.754;2023-04-16T05:09:35;12.07;;;7.95;;
75062;SDS011;63981;51.052;13.754;2023-04-16T05:12:01;11.52;;;7.72;;
75062;SDS011;63981;51.052;13.754;2023-04-16T05:14:27;9.90;;;6.97;;
75062;SDS011;63981;51.052;13.754;2023-04-16T05:16:52;9.40;;;6.57;;
75062;SDS011;63981;51.052;13.754;2023-04-16T05:19:19;10.32;;;8.02;;
75062;SDS011;63981;51.052;13.754;2023-04-16T05:21:45;11.25;;;7.78;;
75062;SDS011;63981;51.052;13.754;2023-04-16T05:24:11;10.73;;;8.10;;
75062;SDS011;63981;51.052;13.754;2023-04-16T05:26:37;10.90;;;7.63;;
75062;SDS011;63981;51.052;13.754;2023-04-16T05:29:02;12.10;;;8.15;;
75062;SDS011;63981;51.052;13.754;2023-04-16T05:31:28;10.45;;;7.25;;
75062;SDS011;63981;51.052;13.754;2023-04-16T05:33:54;10.60;;;7.68;;
75062;SDS011;63981;51.052;13.754;2023-04-16T05:36:20;11.45;;;7.97;;
75062;SDS011;63981;51.052;13.754;2023-04-16T05:38:46;11.15;;;7.93;;
75062;SDS011;63981;51.052;13.754;2023-04-16T05:41:11;14.43;;;7.32;;
75062;SDS011;63981;51.052;13.754;2023-04-16T05:43:37;10.13;;;7.55;;
75062;SDS011;63981;51.052;13.754;2023-04-16T05:46:03;11.07;;;7.28;;
75062;SDS011;63981;51.052;13.754;2023-04-16T05:48:29;12.02;;;8.20;;
75062;SDS011;63981;51.052;13.754;2023-04-16T05:50:55;10.10;;;6.85;;
75062;SDS011;63981;51.052;13.754;2023-04-16T05:53:21;8.73;;;6.82;;
75062;SDS011;63981;51.052;13.754;2023-04-16T05:55:46;10.68;;;7.90;;
75062;SDS011;63981;51.052;13.754;2023-04-16T05:58:12;8.98;;;6.72;;
75062;SDS011;63981;51.052;13.754;2023-04-16T06:00:38;9.43;;;7.32;;
75062;SDS011;63981;51.052;13.754;2023-04-16T06:03:04;8.32;;;6.93;;
75062;SDS011;63981;51.052;13.754;2023-04-16T06:05:30;8.43;;;6.47;;
75062;SDS011;63981;51.052;13.754;2023-04-16T06:07:56;8.40;;;6.05;;
75062;SDS011;63981;51.052;13.754;2023-04-16T06:10:21;11.13;;;7.20;;
75062;SDS011;63981;51.052;13.754;2023-04-16T06:12:47;8.73;;;6.95;;
75062;SDS011;63981;51.052;13.754;2023-04-16T06:15:13;13.32;;;8.38;;
75062;SDS011;63981;51.052;13.754;2023-04-16T06:17:39;7.90;;;6.32;;
75062;SDS011;63981;51.052;13.754;2023-04-16T06:20:05;9.02;;;7.32;;
75062;SDS011;63981;51.052;13.754;2023-04-16T06:22:31;10.57;;;7.53;;
75062;SDS011;63981;51.052;13.754;2023-04-16T06:24:57;10.43;;;7.53;;
75062;SDS011;63981;51.052;13.754;2023-04-16T06:27:23;8.77;;;6.60;;
75062;SDS011;63981;51.052;13.754;2023-04-16T06:29:48;11.07;;;7.88;;
75062;SDS011;63981;51.052;13.754;2023-04-16T06:32:14;11.30;;;7.32;;
75062;SDS011;63981;51.052;13.754;2023-04-16T06:34:41;9.70;;;7.20;;
75062;SDS011;63981;51.052;13.754;2023-04-16T06:37:07;10.43;;;7.90;;
75062;SDS011;63981;51.052;13.754;2023-04-16T06:39:33;11.77;;;8.20;;
75062;SDS011;63981;51.052;13.754;2023-04-16T06:41:59;10.82;;;8.27;;
75062;SDS011;63981;51.052;13.754;2023-04-16T06:44:25;11.00;;;8.20;;
75062;SDS011;63981;51.052;13.754;2023-04-16T06:46:51;12.52;;;8.32;;
75062;SDS011;63981;51.052;13.754;2023-04-16T06:49:17;10.70;;;7.88;;
75062;SDS011;63981;51.052;13.754;2023-04-16T06:51:43;10.30;;;8.23;;
75062;SDS011;63981;51.052;13.754;2023-04-16T06:54:09;10.73;;;7.93;;
75062;SDS011;63981;51.052;13.754;2023-04-16T06:56:34;10.73;;;7.45;;
75062;SDS011;63981;51.052;13.754;2023-04-16T06:59:02;8.70;;;7.00;;
75062;SDS011;63981;51.052;13.754;2023-04-16T07:01:28;8.40;;;6.90;;
75062;SDS011;63981;51.052;13.754;2023-04-16T07:03:56;10.90;;;8.07;;
75062;SDS011;63981;51.052;13.754;2023-04-16T07:06:22;8.80;;;6.70;;
75062;SDS011;63981;51.052;13.754;2023-04-16T07:08:47;9.15;;;6.93;;
75062;SDS011;63981;51.052;13.754;2023-04-16T07:11:13;9.98;;;7.50;;
75062;SDS011;63981;51.052;13.754;2023-04-16T07:13:39;8.18;;;6.53;;
75062;SDS011;63981;51.052;13.754;2023-04-16T07:16:05;10.65;;;7.15;;
75062;SDS011;63981;51.052;13.754;2023-04-16T07:18:31;11.38;;;8.45;;
75062;SDS011;63981;51.052;13.754;2023-04-16T07:20:57;8.73;;;7.53;;
75062;SDS011;63981;51.052;13.754;2023-04-16T07:23:23;11.52;;;8.43;;
75062;SDS011;63981;51.052;13.754;2023-04-16T07:25:48;10.23;;;7.95;;
75062;SDS011;63981;51.052;13.754;2023-04-16T07:28:14;11.43;;;8.00;;
75062;SDS011;63981;51.052;13.754;2023-04-16T07:30:43;10.30;;;8.60;;
75062;SDS011;63981;51.052;13.754;2023-04-16T07:33:09;11.10;;;8.90;;
75062;SDS011;63981;51.052;13.754;2023-04-16T07:35:35;9.40;;;7.75;;
75062;SDS011;63981;51.052;13.754;2023-04-16T07:38:01;9.55;;;8.15;;
75062;SDS011;63981;51.052;13.754;2023-04-16T07:40:27;9.55;;;8.13;;
75062;SDS011;63981;51.052;13.754;2023-04-16T07:42:53;9.93;;;8.55;;
75062;SDS011;63981;51.052;13.754;2023-04-16T07:45:20;10.82;;;9.13;;
75062;SDS011;63981;51.052;13.754;2023-04-16T07:47:46;9.05;;;7.90;;
75062;SDS011;63981;51.052;13.754;2023-04-16T07:50:12;8.18;;;6.90;;
75062;SDS011;63981;51.052;13.754;2023-04-16T07:52:37;8.98;;;7.13;;
75062;SDS011;63981;51.052;13.754;2023-04-16T07:55:08;7.97;;;6.93;;
75062;SDS011;63981;51.052;13.754;2023-04-16T07:57:34;9.30;;;8.07;;
75062;SDS011;63981;51.052;13.754;2023-04-16T08:00:00;8.10;;;6.93;;
75062;SDS011;63981;51.052;13.754;2023-04-16T08:02:41;9.98;;;8.23;;
75062;SDS011;63981;51.052;13.754;2023-04-16T08:05:08;9.57;;;8.50;;
75062;SDS011;63981;51.052;13.754;2023-04-16T08:07:33;7.50;;;6.65;;
75062;SDS011;63981;51.052;13.754;2023-04-16T08:09:59;11.07;;;7.95;;
75062;SDS011;63981;51.052;13.754;2023-04-16T08:12:25;9.90;;;8.82;;
75062;SDS011;63981;51.052;13.754;2023-04-16T08:14:51;8.15;;;7.30;;
75062;SDS011;63981;51.052;13.754;2023-04-16T08:17:17;10.63;;;7.72;;
75062;SDS011;63981;51.052;13.754;2023-04-16T08:19:42;9.23;;;7.65;;
75062;SDS011;63981;51.052;13.754;2023-04-16T08:22:12;8.30;;;7.30;;
75062;SDS011;63981;51.052;13.754;2023-04-16T08:24:38;8.80;;;7.25;;
75062;SDS011;63981;51.052;13.754;2023-04-16T08:27:04;8.35;;;7.38;;
75062;SDS011;63981;51.052;13.754;2023-04-16T08:29:30;10.07;;;9.00;;
75062;SDS011;63981;51.052;13.754;2023-04-16T08:31:56;9.20;;;7.95;;
75062;SDS011;63981;51.052;13.754;2023-04-16T08:34:25;10.35;;;8.88;;
75062;SDS011;63981;51.052;13.754;2023-04-16T08:36:51;10.77;;;9.38;;
75062;SDS011;63981;51.052;13.754;2023-04-16T08:39:17;10.88;;;9.30;;
75062;SDS011;63981;51.052;13.754;2023-04-16T08:41:44;13.13;;;10.25;;
75062;SDS011;63981;51.052;13.754;2023-04-16T08:44:23;11.13;;;9.35;;
75062;SDS011;63981;51.052;13.754;2023-04-16T08:46:56;10.77;;;9.73;;
75062;SDS011;63981;51.052;13.754;2023-04-16T08:49:24;9.88;;;8.88;;
75062;SDS011;63981;51.052;13.754;2023-04-16T08:51:51;9.98;;;8.63;;
75062;SDS011;63981;51.052;13.754;2023-04-16T08:55:05;10.27;;;9.00;;
75062;SDS011;63981;51.052;13.754;2023-04-16T08:57:21;10.27;;;8.48;;
75062;SDS011;63981;51.052;13.754;2023-04-16T08:59:50;9.98;;;8.73;;
75062;SDS011;63981;51.052;13.754;2023-04-16T09:02:16;11.75;;;10.45;;
75062;SDS011;63981;51.052;13.754;2023-04-16T09:04:42;10.63;;;9.43;;
75062;SDS011;63981;51.052;13.754;2023-04-16T09:07:09;9.98;;;8.73;;
75062;SDS011;63981;51.052;13.754;2023-04-16T09:09:36;11.25;;;9.70;;
75062;SDS011;63981;51.052;13.754;2023-04-16T09:12:03;11.68;;;10.20;;
75062;SDS011;63981;51.052;13.754;2023-04-16T09:14:29;11.07;;;9.90;;
75062;SDS011;63981;51.052;13.754;2023-04-16T09:16:55;9.57;;;8.50;;
75062;SDS011;63981;51.052;13.754;2023-04-16T09:19:25;9.88;;;8.88;;
75062;SDS011;63981;51.052;13.754;2023-04-16T09:21:51;11.90;;;8.95;;
75062;SDS011;63981;51.052;13.754;2023-04-16T09:24:17;9.75;;;7.90;;
75062;SDS011;63981;51.052;13.754;2023-04-16T09:26:43;11.90;;;10.57;;
75062;SDS011;63981;51.052;13.754;2023-04-16T09:29:10;12.00;;;9.45;;
75062;SDS011;63981;51.052;13.754;2023-04-16T09:31:36;10.10;;;8.98;;
75062;SDS011;63981;51.052;13.754;2023-04-16T09:34:06;11.27;;;9.63;;
75062;SDS011;63981;51.052;13.754;2023-04-16T09:36:34;11.23;;;10.02;;
75062;SDS011;63981;51.052;13.754;2023-04-16T09:39:01;11.95;;;10.27;;
75062;SDS011;63981;51.052;13.754;2023-04-16T09:41:28;11.02;;;9.75;;
75062;SDS011;63981;51.052;13.754;2023-04-16T09:44:01;8.20;;;7.00;;
75062;SDS011;63981;51.052;13.754;2023-04-16T09:49:20;9.00;;;8.10;;
75062;SDS011;63981;51.052;13.754;2023-04-16T09:51:45;10.77;;;9.68;;
75062;SDS011;63981;51.052;13.754;2023-04-16T09:54:14;7.38;;;6.68;;
75062;SDS011;63981;51.052;13.754;2023-04-16T09:56:41;9.02;;;7.45;;
75062;SDS011;63981;51.052;13.754;2023-04-16T09:59:08;10.13;;;8.70;;
75062;SDS011;63981;51.052;13.754;2023-04-16T10:04:07;9.15;;;7.53;;
75062;SDS011;63981;51.052;13.754;2023-04-16T10:06:33;9.23;;;7.72;;
75062;SDS011;63981;51.052;13.754;2023-04-16T10:08:59;8.50;;;7.18;;
75062;SDS011;63981;51.052;13.754;2023-04-16T10:11:24;7.13;;;6.43;;
75062;SDS011;63981;51.052;13.754;2023-04-16T10:13:50;8.70;;;7.80;;
75062;SDS011;63981;51.052;13.754;2023-04-16T10:16:16;10.60;;;8.98;;
75062;SDS011;63981;51.052;13.754;2023-04-16T10:18:43;8.02;;;6.65;;
75062;SDS011;63981;51.052;13.754;2023-04-16T10:23:40;6.43;;;5.38;;
75062;SDS011;63981;51.052;13.754;2023-04-16T10:26:07;6.28;;;5.60;;
75062;SDS011;63981;51.052;13.754;2023-04-16T10:28:33;7.20;;;6.50;;
75062;SDS011;63981;51.052;13.754;2023-04-16T10:31:03;7.93;;;7.13;;
75062;SDS011;63981;51.052;13.754;2023-04-16T10:33:33;7.80;;;5.55;;
75062;SDS011;63981;51.052;13.754;2023-04-16T10:36:11;5.93;;;5.40;;
75062;SDS011;63981;51.052;13.754;2023-04-16T10:38:39;5.90;;;4.68;;
75062;SDS011;63981;51.052;13.754;2023-04-16T10:41:15;7.60;;;6.10;;
75062;SDS011;63981;51.052;13.754;2023-04-16T10:43:42;6.20;;;5.13;;
75062;SDS011;63981;51.052;13.754;2023-04-16T10:46:19;4.93;;;4.35;;
75062;SDS011;63981;51.052;13.754;2023-04-16T10:48:53;5.63;;;5.10;;
75062;SDS011;63981;51.052;13.754;2023-04-16T10:51:31;5.22;;;4.72;;
75062;SDS011;63981;51.052;13.754;2023-04-16T10:56:27;4.47;;;4.07;;
75062;SDS011;63981;51.052;13.754;2023-04-16T10:58:56;4.50;;;3.70;;
75062;SDS011;63981;51.052;13.754;2023-04-16T11:01:28;7.55;;;6.00;;
75062;SDS011;63981;51.052;13.754;2023-04-16T11:03:59;6.10;;;5.18;;
75062;SDS011;63981;51.052;13.754;2023-04-16T11:08:52;6.13;;;4.88;;
75062;SDS011;63981;51.052;13.754;2023-04-16T11:11:18;8.32;;;4.80;;
75062;SDS011;63981;51.052;13.754;2023-04-16T11:13:45;5.65;;;5.05;;
75062;SDS011;63981;51.052;13.754;2023-04-16T11:16:12;6.47;;;5.85;;
75062;SDS011;63981;51.052;13.754;2023-04-16T11:18:38;6.43;;;5.78;;
75062;SDS011;63981;51.052;13.754;2023-04-16T11:21:08;5.40;;;4.90;;
75062;SDS011;63981;51.052;13.754;2023-04-16T11:23:51;4.47;;;4.07;;
75062;SDS011;63981;51.052;13.754;2023-04-16T11:26:27;4.55;;;4.00;;
75062;SDS011;63981;51.052;13.754;2023-04-16T11:28:55;3.63;;;3.33;;
75062;SDS011;63981;51.052;13.754;2023-04-16T11:31:21;3.70;;;3.20;;
75062;SDS011;63981;51.052;13.754;2023-04-16T11:33:48;4.22;;;3.83;;
75062;SDS011;63981;51.052;13.754;2023-04-16T11:36:14;4.47;;;3.88;;
75062;SDS011;63981;51.052;13.754;2023-04-16T11:38:40;4.20;;;3.80;;
75062;SDS011;63981;51.052;13.754;2023-04-16T11:41:07;4.05;;;3.65;;
75062;SDS011;63981;51.052;13.754;2023-04-16T11:43:34;4.85;;;4.32;;
75062;SDS011;63981;51.052;13.754;2023-04-16T11:46:00;4.28;;;3.88;;
75062;SDS011;63981;51.052;13.754;2023-04-16T11:51:15;3.60;;;3.20;;
75062;SDS011;63981;51.052;13.754;2023-04-16T11:53:51;4.00;;;3.53;;
75062;SDS011;63981;51.052;13.754;2023-04-16T11:56:27;4.07;;;3.65;;
75062;SDS011;63981;51.052;13.754;2023-04-16T12:01:41;3.55;;;2.97;;
75062;SDS011;63981;51.052;13.754;2023-04-16T12:04:12;3.47;;;2.90;;
75062;SDS011;63981;51.052;13.754;2023-04-16T12:06:38;4.10;;;3.53;;
75062;SDS011;63981;51.052;13.754;2023-04-16T12:09:23;2.95;;;2.60;;
75062;SDS011;63981;51.052;13.754;2023-04-16T12:11:49;3.17;;;2.88;;
75062;SDS011;63981;51.052;13.754;2023-04-16T12:14:15;3.10;;;2.65;;
75062;SDS011;63981;51.052;13.754;2023-04-16T12:16:41;2.60;;;2.40;;
75062;SDS011;63981;51.052;13.754;2023-04-16T12:19:11;2.50;;;2.10;;
75062;SDS011;63981;51.052;13.754;2023-04-16T12:24:11;3.05;;;2.38;;
75062;SDS011;63981;51.052;13.754;2023-04-16T12:26:39;2.42;;;2.03;;
75062;SDS011;63981;51.052;13.754;2023-04-16T12:29:25;2.22;;;2.00;;
75062;SDS011;63981;51.052;13.754;2023-04-16T12:31:52;2.17;;;1.77;;
75062;SDS011;63981;51.052;13.754;2023-04-16T12:34:19;1.98;;;1.77;;
75062;SDS011;63981;51.052;13.754;2023-04-16T12:36:46;2.47;;;1.77;;
75062;SDS011;63981;51.052;13.754;2023-04-16T12:39:26;2.00;;;1.80;;
75062;SDS011;63981;51.052;13.754;2023-04-16T12:41:52;2.70;;;2.47;;
75062;SDS011;63981;51.052;13.754;2023-04-16T12:44:18;3.33;;;2.80;;
75062;SDS011;63981;51.052;13.754;2023-04-16T12:46:45;3.55;;;3.10;;
75062;SDS011;63981;51.052;13.754;2023-04-16T12:49:10;2.75;;;2.55;;
75062;SDS011;63981;51.052;13.754;2023-04-16T12:51:37;3.53;;;3.22;;
75062;SDS011;63981;51.052;13.754;2023-04-16T12:54:04;3.40;;;3.10;;
75062;SDS011;63981;51.052;13.754;2023-04-16T12:56:31;3.25;;;2.88;;
75062;SDS011;63981;51.052;13.754;2023-04-16T12:58:58;4.10;;;3.35;;
75062;SDS011;63981;51.052;13.754;2023-04-16T13:01:24;3.72;;;3.33;;
75062;SDS011;63981;51.052;13.754;2023-04-16T13:03:49;3.58;;;3.05;;
75062;SDS011;63981;51.052;13.754;2023-04-16T13:06:16;3.70;;;3.08;;
75062;SDS011;63981;51.052;13.754;2023-04-16T13:08:42;3.10;;;2.80;;
75062;SDS011;63981;51.052;13.754;2023-04-16T13:11:09;5.13;;;2.88;;
75062;SDS011;63981;51.052;13.754;2023-04-16T13:13:35;3.67;;;2.88;;
75062;SDS011;63981;51.052;13.754;2023-04-16T13:16:01;3.92;;;3.53;;
75062;SDS011;63981;51.052;13.754;2023-04-16T13:18:31;4.20;;;3.53;;
75062;SDS011;63981;51.052;13.754;2023-04-16T13:20:57;3.13;;;2.83;;
75062;SDS011;63981;51.052;13.754;2023-04-16T13:23:23;4.25;;;3.85;;
75062;SDS011;63981;51.052;13.754;2023-04-16T13:25:48;3.90;;;3.60;;
75062;SDS011;63981;51.052;13.754;2023-04-16T13:28:14;4.25;;;3.85;;
75062;SDS011;63981;51.052;13.754;2023-04-16T13:30:40;4.05;;;3.65;;
75062;SDS011;63981;51.052;13.754;2023-04-16T13:33:06;4.00;;;3.53;;
75062;SDS011;63981;51.052;13.754;2023-04-16T13:35:32;4.18;;;3.40;;
75062;SDS011;63981;51.052;13.754;2023-04-16T13:37:58;4.10;;;3.40;;
75062;SDS011;63981;51.052;13.754;2023-04-16T13:40:24;3.78;;;3.38;;
75062;SDS011;63981;51.052;13.754;2023-04-16T13:42:50;3.65;;;3.25;;
75062;SDS011;63981;51.052;13.754;2023-04-16T13:45:16;4.30;;;3.50;;
75062;SDS011;63981;51.052;13.754;2023-04-16T13:47:42;3.75;;;3.17;;
75062;SDS011;63981;51.052;13.754;2023-04-16T13:50:08;5.50;;;4.05;;
75062;SDS011;63981;51.052;13.754;2023-04-16T13:52:34;5.72;;;4.55;;
75062;SDS011;63981;51.052;13.754;2023-04-16T13:55:01;4.63;;;3.45;;
75062;SDS011;63981;51.052;13.754;2023-04-16T13:57:27;4.97;;;4.28;;
75062;SDS011;63981;51.052;13.754;2023-04-16T13:59:57;4.13;;;3.70;;
75062;SDS011;63981;51.052;13.754;2023-04-16T14:02:23;4.03;;;3.63;;
75062;SDS011;63981;51.052;13.754;2023-04-16T14:04:51;4.45;;;3.75;;
75062;SDS011;63981;51.052;13.754;2023-04-16T14:07:17;3.33;;;3.03;;
75062;SDS011;63981;51.052;13.754;2023-04-16T14:09:44;6.13;;;4.57;;
75062;SDS011;63981;51.052;13.754;2023-04-16T14:12:10;4.28;;;3.70;;
75062;SDS011;63981;51.052;13.754;2023-04-16T14:14:36;3.67;;;3.38;;
75062;SDS011;63981;51.052;13.754;2023-04-16T14:17:02;3.30;;;3.00;;
75062;SDS011;63981;51.052;13.754;2023-04-16T14:19:29;3.88;;;3.58;;
75062;SDS011;63981;51.052;13.754;2023-04-16T14:21:55;3.83;;;3.42;;
75062;SDS011;63981;51.052;13.754;2023-04-16T14:24:21;4.60;;;3.63;;
75062;SDS011;63981;51.052;13.754;2023-04-16T14:26:47;4.53;;;3.22;;
75062;SDS011;63981;51.052;13.754;2023-04-16T14:29:13;3.55;;;3.00;;
75062;SDS011;63981;51.052;13.754;2023-04-16T14:31:39;5.25;;;3.45;;
75062;SDS011;63981;51.052;13.754;2023-04-16T14:34:05;3.35;;;3.05;;
75062;SDS011;63981;51.052;13.754;2023-04-16T14:36:31;3.35;;;2.80;;
75062;SDS011;63981;51.052;13.754;2023-04-16T14:38:59;3.25;;;2.90;;
75062;SDS011;63981;51.052;13.754;2023-04-16T14:41:25;3.85;;;2.75;;
75062;SDS011;63981;51.052;13.754;2023-04-16T14:43:51;5.13;;;3.22;;
75062;SDS011;63981;51.052;13.754;2023-04-16T14:46:17;5.38;;;3.30;;
75062;SDS011;63981;51.052;13.754;2023-04-16T14:48:43;2.67;;;2.47;;
75062;SDS011;63981;51.052;13.754;2023-04-16T14:51:09;3.78;;;3.47;;